sensor_id;sensor_type;location;lat;lon;timestamp;P1;durP1;ratioP1;P2;durP2;ratioP2
23628;SDS011;11991;57.150;-2.134;2022-12-01T00:01:24;1.40;;;1.10;;
23628;SDS011;11991;57.150;-2.134;2022-12-01T00:03:51;1.77;;;1.38;;
23628;SDS011;11991;57.150;-2.134;2022-12-01T00:06:19;1.63;;;1.20;;
23628;SDS011;11991;57.150;-2.134;2022-12-01T00:08:49;1.65;;;1.15;;
23628;SDS011;11991;57.150;-2.134;2022-12-01T00:11:40;3.67;;;1.30;;
23628;SDS011;11991;57.150;-2.134;2022-12-01T00:14:07;2.58;;;1.85;;
23628;SDS011;11991;57.150;-2.134;2022-12-01T00:16:35;1.73;;;1.45;;
23628;SDS011;11991;57.150;-2.134;2022-12-01T00:19:02;1.80;;;1.48;;
23628;SDS011;11991;57.150;-2.134;2022-12-01T00:21:29;1.48;;;1.08;;
23628;SDS011;11991;57.150;-2.134;2022-12-01T00:23:57;2.88;;;1.20;;
23628;SDS011;11991;57.150;-2.134;2022-12-01T00:26:25;1.40;;;1.30;;
23628;SDS011;11991;57.150;-2.134;2022-12-01T00:28:57;2.03;;;1.05;;
23628;SDS011;11991;57.150;-2.134;2022-12-01T00:31:25;2.58;;;1.20;;
23628;SDS011;11991;57.150;-2.134;2022-12-01T00:33:53;2.95;;;1.17;;
23628;SDS011;11991;57.150;-2.134;2022-12-01T00:36:20;1.60;;;1.23;;
23628;SDS011;11991;57.150;-2.134;2022-12-01T00:38:52;2.22;;;1.23;;
23628;SDS011;11991;57.150;-2.134;2022-12-01T00:41:23;1.52;;;1.35;;
23628;SDS011;11991;57.150;-2.134;2022-12-01T00:43:51;2.42;;;1.58;;
23628;SDS011;11991;57.150;-2.134;2022-12-01T00:46:18;4.90;;;1.67;;
23628;SDS011;11991;57.150;-2.134;2022-12-01T00:48:47;2.22;;;1.70;;
23628;SDS011;11991;57.150;-2.134;2022-12-01T00:51:14;3.35;;;2.20;;
23628;SDS011;11991;57.150;-2.134;2022-12-01T00:53:42;2.25;;;1.58;;
23628;SDS011;11991;57.150;-2.134;2022-12-01T00:56:09;1.95;;;1.70;;
23628;SDS011;11991;57.150;-2.134;2022-12-01T00:58:36;1.92;;;1.17;;
23628;SDS011;11991;57.150;-2.134;2022-12-01T01:01:04;2.72;;;1.85;;
23628;SDS011;11991;57.150;-2.134;2022-12-01T01:03:31;5.97;;;1.70;;
23628;SDS011;11991;57.150;-2.134;2022-12-01T01:06:04;2.28;;;1.83;;
23628;SDS011;11991;57.150;-2.134;2022-12-01T01:08:33;3.05;;;1.98;;
23628;SDS011;11991;57.150;-2.134;2022-12-01T01:11:01;2.75;;;2.15;;
23628;SDS011;11991;57.150;-2.134;2022-12-01T01:13:29;3.10;;;1.85;;
23628;SDS011;11991;57.150;-2.134;2022-12-01T01:16:03;3.20;;;1.80;;
23628;SDS011;11991;57.150;-2.134;2022-12-01T01:18:33;3.65;;;2.33;;
23628;SDS011;11991;57.150;-2.134;2022-12-01T01:21:02;3.40;;;2.40;;
23628;SDS011;11991;57.150;-2.134;2022-12-01T01:23:31;3.60;;;2.65;;
23628;SDS011;11991;57.150;-2.134;2022-12-01T01:26:00;5.65;;;2.92;;
23628;SDS011;11991;57.150;-2.134;2022-12-01T01:28:33;4.22;;;2.88;;
23628;SDS011;11991;57.150;-2.134;2022-12-01T01:31:04;3.08;;;2.40;;
23628;SDS011;11991;57.150;-2.134;2022-12-01T01:33:35;2.88;;;1.92;;
23628;SDS011;11991;57.150;-2.134;2022-12-01T01:36:03;2.83;;;2.35;;
23628;SDS011;11991;57.150;-2.134;2022-12-01T01:38:32;5.38;;;2.47;;
23628;SDS011;11991;57.150;-2.134;2022-12-01T01:41:00;2.70;;;2.10;;
23628;SDS011;11991;57.150;-2.134;2022-12-01T01:43:47;5.63;;;2.53;;
23628;SDS011;11991;57.150;-2.134;2022-12-01T01:46:26;5.82;;;2.70;;
23628;SDS011;11991;57.150;-2.134;2022-12-01T01:51:32;3.45;;;2.22;;
23628;SDS011;11991;57.150;-2.134;2022-12-01T01:56:57;3.83;;;2.17;;
23628;SDS011;11991;57.150;-2.134;2022-12-01T01:59:28;6.10;;;3.15;;
23628;SDS011;11991;57.150;-2.134;2022-12-01T02:02:00;4.80;;;3.25;;
23628;SDS011;11991;57.150;-2.134;2022-12-01T02:04:33;4.70;;;2.60;;
23628;SDS011;11991;57.150;-2.134;2022-12-01T02:07:01;4.20;;;2.10;;
23628;SDS011;11991;57.150;-2.134;2022-12-01T02:09:29;4.35;;;2.65;;
23628;SDS011;11991;57.150;-2.134;2022-12-01T02:20:02;2.63;;;2.08;;
23628;SDS011;11991;57.150;-2.134;2022-12-01T02:28:53;4.47;;;2.85;;
23628;SDS011;11991;57.150;-2.134;2022-12-01T02:31:46;5.15;;;3.00;;
23628;SDS011;11991;57.150;-2.134;2022-12-01T02:40:13;2.58;;;2.08;;
23628;SDS011;11991;57.150;-2.134;2022-12-01T02:42:59;4.22;;;3.08;;
23628;SDS011;11991;57.150;-2.134;2022-12-01T02:48:15;3.33;;;2.25;;
23628;SDS011;11991;57.150;-2.134;2022-12-01T02:50:49;4.90;;;2.67;;
23628;SDS011;11991;57.150;-2.134;2022-12-01T02:53:17;4.07;;;2.80;;
23628;SDS011;11991;57.150;-2.134;2022-12-01T02:55:46;3.35;;;2.42;;
23628;SDS011;11991;57.150;-2.134;2022-12-01T02:58:23;4.57;;;3.45;;
23628;SDS011;11991;57.150;-2.134;2022-12-01T03:01:00;6.85;;;3.47;;
23628;SDS011;11991;57.150;-2.134;2022-12-01T03:03:44;3.63;;;2.08;;
23628;SDS011;11991;57.150;-2.134;2022-12-01T03:06:26;4.15;;;2.25;;
23628;SDS011;11991;57.150;-2.134;2022-12-01T03:09:03;3.75;;;2.10;;
23628;SDS011;11991;57.150;-2.134;2022-12-01T03:11:42;5.20;;;3.00;;
23628;SDS011;11991;57.150;-2.134;2022-12-01T03:17:26;4.53;;;2.67;;
23628;SDS011;11991;57.150;-2.134;2022-12-01T03:20:04;4.30;;;2.50;;
23628;SDS011;11991;57.150;-2.134;2022-12-01T03:22:53;6.85;;;3.03;;
23628;SDS011;11991;57.150;-2.134;2022-12-01T03:25:25;3.20;;;2.53;;
23628;SDS011;11991;57.150;-2.134;2022-12-01T03:27:53;6.28;;;3.35;;
23628;SDS011;11991;57.150;-2.134;2022-12-01T03:30:44;4.20;;;2.38;;
23628;SDS011;11991;57.150;-2.134;2022-12-01T03:33:15;8.57;;;3.83;;
23628;SDS011;11991;57.150;-2.134;2022-12-01T03:35:53;4.80;;;3.17;;
23628;SDS011;11991;57.150;-2.134;2022-12-01T03:38:25;9.48;;;4.85;;
23628;SDS011;11991;57.150;-2.134;2022-12-01T03:40:55;3.92;;;2.55;;
23628;SDS011;11991;57.150;-2.134;2022-12-01T03:43:29;5.20;;;2.70;;
23628;SDS011;11991;57.150;-2.134;2022-12-01T03:48:38;5.65;;;2.83;;
23628;SDS011;11991;57.150;-2.134;2022-12-01T03:56:48;4.07;;;2.38;;
23628;SDS011;11991;57.150;-2.134;2022-12-01T03:59:21;3.65;;;2.58;;
23628;SDS011;11991;57.150;-2.134;2022-12-01T04:01:51;4.97;;;3.42;;
23628;SDS011;11991;57.150;-2.134;2022-12-01T04:04:18;6.38;;;3.97;;
23628;SDS011;11991;57.150;-2.134;2022-12-01T04:06:46;6.35;;;4.15;;
23628;SDS011;11991;57.150;-2.134;2022-12-01T04:09:16;6.32;;;3.92;;
23628;SDS011;11991;57.150;-2.134;2022-12-01T04:11:43;8.02;;;4.28;;
23628;SDS011;11991;57.150;-2.134;2022-12-01T04:14:29;5.53;;;3.72;;
23628;SDS011;11991;57.150;-2.134;2022-12-01T04:16:56;6.03;;;3.20;;
23628;SDS011;11991;57.150;-2.134;2022-12-01T04:19:23;8.07;;;4.80;;
23628;SDS011;11991;57.150;-2.134;2022-12-01T04:21:50;7.30;;;4.70;;
23628;SDS011;11991;57.150;-2.134;2022-12-01T04:24:17;11.07;;;6.18;;
23628;SDS011;11991;57.150;-2.134;2022-12-01T04:26:45;8.15;;;4.45;;
23628;SDS011;11991;57.150;-2.134;2022-12-01T04:29:12;7.18;;;4.38;;
23628;SDS011;11991;57.150;-2.134;2022-12-01T04:31:40;12.82;;;5.97;;
23628;SDS011;11991;57.150;-2.134;2022-12-01T04:34:08;9.02;;;5.07;;
23628;SDS011;11991;57.150;-2.134;2022-12-01T04:36:36;6.32;;;4.38;;
23628;SDS011;11991;57.150;-2.134;2022-12-01T04:39:03;7.00;;;4.05;;
23628;SDS011;11991;57.150;-2.134;2022-12-01T04:41:30;7.03;;;4.05;;
23628;SDS011;11991;57.150;-2.134;2022-12-01T04:43:58;10.00;;;5.57;;
23628;SDS011;11991;57.150;-2.134;2022-12-01T04:46:25;8.95;;;6.07;;
23628;SDS011;11991;57.150;-2.134;2022-12-01T04:48:52;6.97;;;4.18;;
23628;SDS011;11991;57.150;-2.134;2022-12-01T04:51:20;4.95;;;3.33;;
23628;SDS011;11991;57.150;-2.134;2022-12-01T04:53:48;7.28;;;4.30;;
23628;SDS011;11991;57.150;-2.134;2022-12-01T04:56:16;5.50;;;3.50;;
23628;SDS011;11991;57.150;-2.134;2022-12-01T04:58:44;4.60;;;3.55;;
23628;SDS011;11991;57.150;-2.134;2022-12-01T05:01:12;7.13;;;3.92;;
23628;SDS011;11991;57.150;-2.134;2022-12-01T05:03:42;4.95;;;3.03;;
23628;SDS011;11991;57.150;-2.134;2022-12-01T05:06:12;8.82;;;5.35;;
23628;SDS011;11991;57.150;-2.134;2022-12-01T05:08:41;11.30;;;6.85;;
23628;SDS011;11991;57.150;-2.134;2022-12-01T05:11:08;8.13;;;4.78;;
23628;SDS011;11991;57.150;-2.134;2022-12-01T05:13:38;5.95;;;3.17;;
23628;SDS011;11991;57.150;-2.134;2022-12-01T05:18:36;10.48;;;6.50;;
23628;SDS011;11991;57.150;-2.134;2022-12-01T05:21:04;6.50;;;3.97;;
23628;SDS011;11991;57.150;-2.134;2022-12-01T05:23:32;8.80;;;4.85;;
23628;SDS011;11991;57.150;-2.134;2022-12-01T05:26:02;7.35;;;4.93;;
23628;SDS011;11991;57.150;-2.134;2022-12-01T05:28:31;6.47;;;3.80;;
23628;SDS011;11991;57.150;-2.134;2022-12-01T05:30:58;13.50;;;7.97;;
23628;SDS011;11991;57.150;-2.134;2022-12-01T05:33:27;10.23;;;5.57;;
23628;SDS011;11991;57.150;-2.134;2022-12-01T05:35:54;6.10;;;3.53;;
23628;SDS011;11991;57.150;-2.134;2022-12-01T05:38:22;6.35;;;4.40;;
23628;SDS011;11991;57.150;-2.134;2022-12-01T05:40:53;5.80;;;3.85;;
23628;SDS011;11991;57.150;-2.134;2022-12-01T05:43:22;9.57;;;5.40;;
23628;SDS011;11991;57.150;-2.134;2022-12-01T05:45:55;7.93;;;4.50;;
23628;SDS011;11991;57.150;-2.134;2022-12-01T05:48:23;8.80;;;4.10;;
23628;SDS011;11991;57.150;-2.134;2022-12-01T05:50:50;5.10;;;3.15;;
23628;SDS011;11991;57.150;-2.134;2022-12-01T05:53:18;4.57;;;3.03;;
23628;SDS011;11991;57.150;-2.134;2022-12-01T05:55:45;5.90;;;3.03;;
23628;SDS011;11991;57.150;-2.134;2022-12-01T05:58:20;7.57;;;3.97;;
23628;SDS011;11991;57.150;-2.134;2022-12-01T06:00:48;6.63;;;4.18;;
23628;SDS011;11991;57.150;-2.134;2022-12-01T06:03:15;7.10;;;4.65;;
23628;SDS011;11991;57.150;-2.134;2022-12-01T06:05:43;8.98;;;5.20;;
23628;SDS011;11991;57.150;-2.134;2022-12-01T06:08:10;5.10;;;3.25;;
23628;SDS011;11991;57.150;-2.134;2022-12-01T06:10:37;5.18;;;2.83;;
23628;SDS011;11991;57.150;-2.134;2022-12-01T06:13:04;5.82;;;3.25;;
23628;SDS011;11991;57.150;-2.134;2022-12-01T06:15:32;7.10;;;4.22;;
23628;SDS011;11991;57.150;-2.134;2022-12-01T06:17:59;4.85;;;3.33;;
23628;SDS011;11991;57.150;-2.134;2022-12-01T06:20:26;4.00;;;2.38;;
23628;SDS011;11991;57.150;-2.134;2022-12-01T06:22:54;6.88;;;4.05;;
23628;SDS011;11991;57.150;-2.134;2022-12-01T06:25:21;8.05;;;4.22;;
23628;SDS011;11991;57.150;-2.134;2022-12-01T06:27:48;5.22;;;3.13;;
23628;SDS011;11991;57.150;-2.134;2022-12-01T06:30:16;5.22;;;3.60;;
23628;SDS011;11991;57.150;-2.134;2022-12-01T06:32:43;6.63;;;3.72;;
23628;SDS011;11991;57.150;-2.134;2022-12-01T06:35:10;6.32;;;4.22;;
23628;SDS011;11991;57.150;-2.134;2022-12-01T06:37:37;3.95;;;2.90;;
23628;SDS011;11991;57.150;-2.134;2022-12-01T06:40:05;7.47;;;4.20;;
23628;SDS011;11991;57.150;-2.134;2022-12-01T06:42:33;6.68;;;3.30;;
23628;SDS011;11991;57.150;-2.134;2022-12-01T06:45:00;5.75;;;3.50;;
23628;SDS011;11991;57.150;-2.134;2022-12-01T06:47:28;5.15;;;2.97;;
23628;SDS011;11991;57.150;-2.134;2022-12-01T06:49:55;6.97;;;4.13;;
23628;SDS011;11991;57.150;-2.134;2022-12-01T06:52:22;6.03;;;3.33;;
23628;SDS011;11991;57.150;-2.134;2022-12-01T06:54:49;4.97;;;2.90;;
23628;SDS011;11991;57.150;-2.134;2022-12-01T06:57:17;4.43;;;2.75;;
23628;SDS011;11991;57.150;-2.134;2022-12-01T06:59:45;3.53;;;2.53;;
23628;SDS011;11991;57.150;-2.134;2022-12-01T07:02:13;3.67;;;2.47;;
23628;SDS011;11991;57.150;-2.134;2022-12-01T07:04:40;4.93;;;2.85;;
23628;SDS011;11991;57.150;-2.134;2022-12-01T07:07:08;4.28;;;3.00;;
23628;SDS011;11991;57.150;-2.134;2022-12-01T07:09:35;4.72;;;3.25;;
23628;SDS011;11991;57.150;-2.134;2022-12-01T07:12:03;7.03;;;3.63;;
23628;SDS011;11991;57.150;-2.134;2022-12-01T07:14:30;4.22;;;3.13;;
23628;SDS011;11991;57.150;-2.134;2022-12-01T07:16:57;3.70;;;2.50;;
23628;SDS011;11991;57.150;-2.134;2022-12-01T07:19:25;4.85;;;2.90;;
23628;SDS011;11991;57.150;-2.134;2022-12-01T07:21:52;5.78;;;3.20;;
23628;SDS011;11991;57.150;-2.134;2022-12-01T07:24:19;3.80;;;2.38;;
23628;SDS011;11991;57.150;-2.134;2022-12-01T07:26:47;4.05;;;2.45;;
23628;SDS011;11991;57.150;-2.134;2022-12-01T07:29:14;3.33;;;2.55;;
23628;SDS011;11991;57.150;-2.134;2022-12-01T07:31:41;3.63;;;2.55;;
23628;SDS011;11991;57.150;-2.134;2022-12-01T07:34:12;5.70;;;3.22;;
23628;SDS011;11991;57.150;-2.134;2022-12-01T07:36:39;3.35;;;2.05;;
23628;SDS011;11991;57.150;-2.134;2022-12-01T07:39:07;7.47;;;3.75;;
23628;SDS011;11991;57.150;-2.134;2022-12-01T07:41:34;4.43;;;2.72;;
23628;SDS011;11991;57.150;-2.134;2022-12-01T07:44:02;3.65;;;2.78;;
23628;SDS011;11991;57.150;-2.134;2022-12-01T07:46:29;7.13;;;3.78;;
23628;SDS011;11991;57.150;-2.134;2022-12-01T07:48:56;3.53;;;2.45;;
23628;SDS011;11991;57.150;-2.134;2022-12-01T07:51:25;3.05;;;2.03;;
23628;SDS011;11991;57.150;-2.134;2022-12-01T07:53:53;3.90;;;2.42;;
23628;SDS011;11991;57.150;-2.134;2022-12-01T07:56:20;6.03;;;2.78;;
23628;SDS011;11991;57.150;-2.134;2022-12-01T07:58:48;4.60;;;3.08;;
23628;SDS011;11991;57.150;-2.134;2022-12-01T08:01:20;4.90;;;3.20;;
23628;SDS011;11991;57.150;-2.134;2022-12-01T08:03:49;4.65;;;2.70;;
23628;SDS011;11991;57.150;-2.134;2022-12-01T08:06:17;5.25;;;3.08;;
23628;SDS011;11991;57.150;-2.134;2022-12-01T08:08:45;5.07;;;2.95;;
23628;SDS011;11991;57.150;-2.134;2022-12-01T08:11:14;4.90;;;2.90;;
23628;SDS011;11991;57.150;-2.134;2022-12-01T08:13:42;3.53;;;2.33;;
23628;SDS011;11991;57.150;-2.134;2022-12-01T08:16:11;3.95;;;2.55;;
23628;SDS011;11991;57.150;-2.134;2022-12-01T08:18:41;3.97;;;2.50;;
23628;SDS011;11991;57.150;-2.134;2022-12-01T08:21:11;4.18;;;2.13;;
23628;SDS011;11991;57.150;-2.134;2022-12-01T08:23:39;3.20;;;1.92;;
23628;SDS011;11991;57.150;-2.134;2022-12-01T08:26:09;4.88;;;3.13;;
23628;SDS011;11991;57.150;-2.134;2022-12-01T08:28:38;4.82;;;2.72;;
23628;SDS011;11991;57.150;-2.134;2022-12-01T08:31:09;5.30;;;3.38;;
23628;SDS011;11991;57.150;-2.134;2022-12-01T08:33:42;2.75;;;2.00;;
23628;SDS011;11991;57.150;-2.134;2022-12-01T08:36:10;4.07;;;2.97;;
23628;SDS011;11991;57.150;-2.134;2022-12-01T08:38:37;3.25;;;2.05;;
23628;SDS011;11991;57.150;-2.134;2022-12-01T08:41:05;4.20;;;2.88;;
23628;SDS011;11991;57.150;-2.134;2022-12-01T08:43:34;3.92;;;2.88;;
23628;SDS011;11991;57.150;-2.134;2022-12-01T08:46:27;3.95;;;2.72;;
23628;SDS011;11991;57.150;-2.134;2022-12-01T08:48:57;4.43;;;2.72;;
23628;SDS011;11991;57.150;-2.134;2022-12-01T08:51:24;4.70;;;2.38;;
23628;SDS011;11991;57.150;-2.134;2022-12-01T08:53:53;2.95;;;2.20;;
23628;SDS011;11991;57.150;-2.134;2022-12-01T08:56:24;4.60;;;3.42;;
23628;SDS011;11991;57.150;-2.134;2022-12-01T08:58:54;5.72;;;4.05;;
23628;SDS011;11991;57.150;-2.134;2022-12-01T09:01:21;4.57;;;2.45;;
23628;SDS011;11991;57.150;-2.134;2022-12-01T09:03:49;3.30;;;2.70;;
23628;SDS011;11991;57.150;-2.134;2022-12-01T09:06:32;5.07;;;3.38;;
23628;SDS011;11991;57.150;-2.134;2022-12-01T09:09:03;3.58;;;2.42;;
23628;SDS011;11991;57.150;-2.134;2022-12-01T09:11:31;3.47;;;2.45;;
23628;SDS011;11991;57.150;-2.134;2022-12-01T09:13:58;5.07;;;3.22;;
23628;SDS011;11991;57.150;-2.134;2022-12-01T09:16:26;2.83;;;1.90;;
23628;SDS011;11991;57.150;-2.134;2022-12-01T09:18:54;3.65;;;2.75;;
23628;SDS011;11991;57.150;-2.134;2022-12-01T09:21:24;4.57;;;2.17;;
23628;SDS011;11991;57.150;-2.134;2022-12-01T09:23:59;4.60;;;3.35;;
23628;SDS011;11991;57.150;-2.134;2022-12-01T09:26:27;6.45;;;3.30;;
23628;SDS011;11991;57.150;-2.134;2022-12-01T09:28:56;4.10;;;2.55;;
23628;SDS011;11991;57.150;-2.134;2022-12-01T09:31:29;4.57;;;3.38;;
23628;SDS011;11991;57.150;-2.134;2022-12-01T09:33:57;3.80;;;2.58;;
23628;SDS011;11991;57.150;-2.134;2022-12-01T09:36:30;5.47;;;2.95;;
23628;SDS011;11991;57.150;-2.134;2022-12-01T09:38:58;4.13;;;2.03;;
23628;SDS011;11991;57.150;-2.134;2022-12-01T09:41:27;2.80;;;2.30;;
23628;SDS011;11991;57.150;-2.134;2022-12-01T09:44:18;5.70;;;3.35;;
23628;SDS011;11991;57.150;-2.134;2022-12-01T09:47:12;3.25;;;2.75;;
23628;SDS011;11991;57.150;-2.134;2022-12-01T09:49:51;5.47;;;2.90;;
23628;SDS011;11991;57.150;-2.134;2022-12-01T09:52:26;6.13;;;3.65;;
23628;SDS011;11991;57.150;-2.134;2022-12-01T09:54:58;4.95;;;3.33;;
23628;SDS011;11991;57.150;-2.134;2022-12-01T09:59:57;2.72;;;2.15;;
23628;SDS011;11991;57.150;-2.134;2022-12-01T10:02:59;4.45;;;2.75;;
23628;SDS011;11991;57.150;-2.134;2022-12-01T10:08:32;4.85;;;3.05;;
23628;SDS011;11991;57.150;-2.134;2022-12-01T10:11:45;3.55;;;2.25;;
23628;SDS011;11991;57.150;-2.134;2022-12-01T10:14:02;4.18;;;2.78;;
23628;SDS011;11991;57.150;-2.134;2022-12-01T10:16:34;3.90;;;3.08;;
23628;SDS011;11991;57.150;-2.134;2022-12-01T10:19:12;3.30;;;1.98;;
23628;SDS011;11991;57.150;-2.134;2022-12-01T10:25:04;3.75;;;2.78;;
23628;SDS011;11991;57.150;-2.134;2022-12-01T10:30:34;4.15;;;2.75;;
23628;SDS011;11991;57.150;-2.134;2022-12-01T10:33:08;5.63;;;3.42;;
23628;SDS011;11991;57.150;-2.134;2022-12-01T10:35:56;5.07;;;3.15;;
23628;SDS011;11991;57.150;-2.134;2022-12-01T10:40:53;4.53;;;2.38;;
23628;SDS011;11991;57.150;-2.134;2022-12-01T10:43:26;3.55;;;2.38;;
23628;SDS011;11991;57.150;-2.134;2022-12-01T10:46:04;6.07;;;3.95;;
23628;SDS011;11991;57.150;-2.134;2022-12-01T10:48:54;4.30;;;2.55;;
23628;SDS011;11991;57.150;-2.134;2022-12-01T10:51:23;2.90;;;2.20;;
23628;SDS011;11991;57.150;-2.134;2022-12-01T10:53:58;4.55;;;3.17;;
23628;SDS011;11991;57.150;-2.134;2022-12-01T10:56:33;5.10;;;3.35;;
23628;SDS011;11991;57.150;-2.134;2022-12-01T10:59:15;5.22;;;2.92;;
23628;SDS011;11991;57.150;-2.134;2022-12-01T11:01:49;4.22;;;3.00;;
23628;SDS011;11991;57.150;-2.134;2022-12-01T11:12:30;5.38;;;4.00;;
23628;SDS011;11991;57.150;-2.134;2022-12-01T11:14:59;6.10;;;4.05;;
23628;SDS011;11991;57.150;-2.134;2022-12-01T11:20:24;2.95;;;2.40;;
23628;SDS011;11991;57.150;-2.134;2022-12-01T11:28:50;2.75;;;1.90;;
23628;SDS011;11991;57.150;-2.134;2022-12-01T11:31:18;1.52;;;1.30;;
23628;SDS011;11991;57.150;-2.134;2022-12-01T11:33:50;2.35;;;1.90;;
23628;SDS011;11991;57.150;-2.134;2022-12-01T11:36:20;2.55;;;1.38;;
23628;SDS011;11991;57.150;-2.134;2022-12-01T11:39:16;2.40;;;1.55;;
23628;SDS011;11991;57.150;-2.134;2022-12-01T11:41:57;2.50;;;1.67;;
23628;SDS011;11991;57.150;-2.134;2022-12-01T11:44:27;2.63;;;1.90;;
23628;SDS011;11991;57.150;-2.134;2022-12-01T11:47:21;1.42;;;1.33;;
23628;SDS011;11991;57.150;-2.134;2022-12-01T11:49:58;2.65;;;1.77;;
23628;SDS011;11991;57.150;-2.134;2022-12-01T11:52:28;1.58;;;1.15;;
23628;SDS011;11991;57.150;-2.134;2022-12-01T11:55:14;1.88;;;1.20;;
23628;SDS011;11991;57.150;-2.134;2022-12-01T11:57:50;2.08;;;1.60;;
23628;SDS011;11991;57.150;-2.134;2022-12-01T12:00:21;4.13;;;3.08;;
23628;SDS011;11991;57.150;-2.134;2022-12-01T12:05:38;2.28;;;1.63;;
23628;SDS011;11991;57.150;-2.134;2022-12-01T12:32:51;0.82;;;0.73;;
23628;SDS011;11991;57.150;-2.134;2022-12-01T12:38:31;1.10;;;0.80;;
23628;SDS011;11991;57.150;-2.134;2022-12-01T12:44:03;1.50;;;1.17;;
23628;SDS011;11991;57.150;-2.134;2022-12-01T12:52:04;1.88;;;0.82;;
23628;SDS011;11991;57.150;-2.134;2022-12-01T12:57:27;1.25;;;1.02;;
23628;SDS011;11991;57.150;-2.134;2022-12-01T13:00:32;0.82;;;0.82;;
23628;SDS011;11991;57.150;-2.134;2022-12-01T13:05:44;0.98;;;0.70;;
23628;SDS011;11991;57.150;-2.134;2022-12-01T13:08:37;1.20;;;1.00;;
23628;SDS011;11991;57.150;-2.134;2022-12-01T13:11:17;1.00;;;0.90;;
23628;SDS011;11991;57.150;-2.134;2022-12-01T13:13:54;1.33;;;1.15;;
23628;SDS011;11991;57.150;-2.134;2022-12-01T13:16:31;1.17;;;0.93;;
23628;SDS011;11991;57.150;-2.134;2022-12-01T13:19:04;4.43;;;1.20;;
23628;SDS011;11991;57.150;-2.134;2022-12-01T13:21:40;1.73;;;1.33;;
23628;SDS011;11991;57.150;-2.134;2022-12-01T13:24:11;1.35;;;1.02;;
23628;SDS011;11991;57.150;-2.134;2022-12-01T13:26:50;1.13;;;1.02;;
23628;SDS011;11991;57.150;-2.134;2022-12-01T13:29:22;0.98;;;0.90;;
23628;SDS011;11991;57.150;-2.134;2022-12-01T13:31:52;1.20;;;0.82;;
23628;SDS011;11991;57.150;-2.134;2022-12-01T13:34:25;0.80;;;0.80;;
23628;SDS011;11991;57.150;-2.134;2022-12-01T13:37:07;1.27;;;1.05;;
23628;SDS011;11991;57.150;-2.134;2022-12-01T13:39:36;1.33;;;1.00;;
23628;SDS011;11991;57.150;-2.134;2022-12-01T13:42:06;2.35;;;1.70;;
23628;SDS011;11991;57.150;-2.134;2022-12-01T13:44:49;1.35;;;1.25;;
23628;SDS011;11991;57.150;-2.134;2022-12-01T13:53:24;1.98;;;1.27;;
23628;SDS011;11991;57.150;-2.134;2022-12-01T14:09:00;1.75;;;1.42;;
23628;SDS011;11991;57.150;-2.134;2022-12-01T14:11:32;1.70;;;1.20;;
23628;SDS011;11991;57.150;-2.134;2022-12-01T14:14:02;1.88;;;1.23;;
23628;SDS011;11991;57.150;-2.134;2022-12-01T14:16:57;1.85;;;1.20;;
23628;SDS011;11991;57.150;-2.134;2022-12-01T14:22:37;1.90;;;1.50;;
23628;SDS011;11991;57.150;-2.134;2022-12-01T14:27:50;2.28;;;1.30;;
23628;SDS011;11991;57.150;-2.134;2022-12-01T14:38:43;1.63;;;1.20;;
23628;SDS011;11991;57.150;-2.134;2022-12-01T14:41:26;1.80;;;1.63;;
23628;SDS011;11991;57.150;-2.134;2022-12-01T14:44:29;1.83;;;1.38;;
23628;SDS011;11991;57.150;-2.134;2022-12-01T14:47:00;2.20;;;1.60;;
23628;SDS011;11991;57.150;-2.134;2022-12-01T14:49:37;1.40;;;1.30;;
23628;SDS011;11991;57.150;-2.134;2022-12-01T14:54:56;1.20;;;0.88;;
23628;SDS011;11991;57.150;-2.134;2022-12-01T14:57:30;1.75;;;1.65;;
23628;SDS011;11991;57.150;-2.134;2022-12-01T15:00:14;1.23;;;0.88;;
23628;SDS011;11991;57.150;-2.134;2022-12-01T15:05:28;1.42;;;1.33;;
23628;SDS011;11991;57.150;-2.134;2022-12-01T15:08:00;1.45;;;1.08;;
23628;SDS011;11991;57.150;-2.134;2022-12-01T15:11:05;0.95;;;0.70;;
23628;SDS011;11991;57.150;-2.134;2022-12-01T15:13:49;0.75;;;0.70;;
23628;SDS011;11991;57.150;-2.134;2022-12-01T15:16:20;1.65;;;1.10;;
23628;SDS011;11991;57.150;-2.134;2022-12-01T15:18:49;1.25;;;1.02;;
23628;SDS011;11991;57.150;-2.134;2022-12-01T15:23:59;1.50;;;1.40;;
23628;SDS011;11991;57.150;-2.134;2022-12-01T15:26:33;8.13;;;5.28;;
23628;SDS011;11991;57.150;-2.134;2022-12-01T15:29:45;1.80;;;1.58;;
23628;SDS011;11991;57.150;-2.134;2022-12-01T15:32:01;3.10;;;2.22;;
23628;SDS011;11991;57.150;-2.134;2022-12-01T15:34:42;7.57;;;5.80;;
23628;SDS011;11991;57.150;-2.134;2022-12-01T15:37:13;2.92;;;2.25;;
23628;SDS011;11991;57.150;-2.134;2022-12-01T15:39:44;6.05;;;5.22;;
23628;SDS011;11991;57.150;-2.134;2022-12-01T15:44:57;4.70;;;4.30;;
23628;SDS011;11991;57.150;-2.134;2022-12-01T15:49:58;2.92;;;2.63;;
23628;SDS011;11991;57.150;-2.134;2022-12-01T15:52:25;2.15;;;1.70;;
23628;SDS011;11991;57.150;-2.134;2022-12-01T15:54:54;2.40;;;1.90;;
23628;SDS011;11991;57.150;-2.134;2022-12-01T15:57:25;2.83;;;2.17;;
23628;SDS011;11991;57.150;-2.134;2022-12-01T15:59:53;2.38;;;2.05;;
23628;SDS011;11991;57.150;-2.134;2022-12-01T16:02:27;3.20;;;2.40;;
23628;SDS011;11991;57.150;-2.134;2022-12-01T16:05:02;2.60;;;1.88;;
23628;SDS011;11991;57.150;-2.134;2022-12-01T16:07:50;2.90;;;2.20;;
23628;SDS011;11991;57.150;-2.134;2022-12-01T16:10:38;3.88;;;2.88;;
23628;SDS011;11991;57.150;-2.134;2022-12-01T16:19:01;5.82;;;3.90;;
23628;SDS011;11991;57.150;-2.134;2022-12-01T16:21:29;2.97;;;2.10;;
23628;SDS011;11991;57.150;-2.134;2022-12-01T16:24:12;4.28;;;2.72;;
23628;SDS011;11991;57.150;-2.134;2022-12-01T16:26:52;4.70;;;3.45;;
23628;SDS011;11991;57.150;-2.134;2022-12-01T16:29:23;6.57;;;3.55;;
23628;SDS011;11991;57.150;-2.134;2022-12-01T16:31:52;3.88;;;2.55;;
23628;SDS011;11991;57.150;-2.134;2022-12-01T16:34:41;4.35;;;2.72;;
23628;SDS011;11991;57.150;-2.134;2022-12-01T16:37:12;3.60;;;2.50;;
23628;SDS011;11991;57.150;-2.134;2022-12-01T16:39:40;5.90;;;3.17;;
23628;SDS011;11991;57.150;-2.134;2022-12-01T16:42:12;3.55;;;2.60;;
23628;SDS011;11991;57.150;-2.134;2022-12-01T16:44:42;5.30;;;2.88;;
23628;SDS011;11991;57.150;-2.134;2022-12-01T16:47:21;4.82;;;3.22;;
23628;SDS011;11991;57.150;-2.134;2022-12-01T16:49:50;3.75;;;2.58;;
23628;SDS011;11991;57.150;-2.134;2022-12-01T16:52:18;4.88;;;3.00;;
23628;SDS011;11991;57.150;-2.134;2022-12-01T16:55:52;4.75;;;3.22;;
23628;SDS011;11991;57.150;-2.134;2022-12-01T16:58:04;4.63;;;3.60;;
23628;SDS011;11991;57.150;-2.134;2022-12-01T17:00:32;6.65;;;4.25;;
23628;SDS011;11991;57.150;-2.134;2022-12-01T17:03:00;6.10;;;4.00;;
23628;SDS011;11991;57.150;-2.134;2022-12-01T17:05:27;3.40;;;2.50;;
23628;SDS011;11991;57.150;-2.134;2022-12-01T17:07:55;4.95;;;2.92;;
23628;SDS011;11991;57.150;-2.134;2022-12-01T17:10:22;4.82;;;2.95;;
23628;SDS011;11991;57.150;-2.134;2022-12-01T17:12:50;5.45;;;3.70;;
23628;SDS011;11991;57.150;-2.134;2022-12-01T17:15:17;4.40;;;3.45;;
23628;SDS011;11991;57.150;-2.134;2022-12-01T17:17:44;7.22;;;4.68;;
23628;SDS011;11991;57.150;-2.134;2022-12-01T17:20:13;4.30;;;3.35;;
23628;SDS011;11991;57.150;-2.134;2022-12-01T17:22:42;5.72;;;4.18;;
23628;SDS011;11991;57.150;-2.134;2022-12-01T17:25:38;7.90;;;5.20;;
23628;SDS011;11991;57.150;-2.134;2022-12-01T17:28:07;6.35;;;3.97;;
23628;SDS011;11991;57.150;-2.134;2022-12-01T17:30:34;5.03;;;3.42;;
23628;SDS011;11991;57.150;-2.134;2022-12-01T17:33:02;6.63;;;4.43;;
23628;SDS011;11991;57.150;-2.134;2022-12-01T17:35:30;4.75;;;2.92;;
23628;SDS011;11991;57.150;-2.134;2022-12-01T17:37:57;3.95;;;3.25;;
23628;SDS011;11991;57.150;-2.134;2022-12-01T17:40:25;5.82;;;3.80;;
23628;SDS011;11991;57.150;-2.134;2022-12-01T17:42:53;5.30;;;4.00;;
23628;SDS011;11991;57.150;-2.134;2022-12-01T17:45:20;5.70;;;3.83;;
23628;SDS011;11991;57.150;-2.134;2022-12-01T17:47:47;4.63;;;3.45;;
23628;SDS011;11991;57.150;-2.134;2022-12-01T17:50:15;4.68;;;2.67;;
23628;SDS011;11991;57.150;-2.134;2022-12-01T17:52:42;4.00;;;2.83;;